createdAt,value
2023-08-22T00:00:28.204Z,11.60
2023-08-22T00:02:34.150Z,9.88
2023-08-22T00:04:42.147Z,11.80
2023-08-22T00:06:48.075Z,8.85
2023-08-22T00:08:57.089Z,8.13
2023-08-22T00:11:03.138Z,10.63
2023-08-22T00:13:09.660Z,9.68
2023-08-22T00:15:16.342Z,7.38
2023-08-22T00:17:22.590Z,5.38
2023-08-22T00:19:30.926Z,5.78
2023-08-22T00:21:38.942Z,7.68
2023-08-22T00:23:45.458Z,7.43
2023-08-22T00:25:51.645Z,7.78
2023-08-22T00:27:57.165Z,7.13
2023-08-22T00:30:01.039Z,7.50
2023-08-22T00:32:06.654Z,6.38
2023-08-22T00:34:14.010Z,6.38
2023-08-22T00:36:19.404Z,7.88
2023-08-22T00:38:36.598Z,6.00
2023-08-22T00:40:42.508Z,7.28
2023-08-22T00:42:48.120Z,7.18
2023-08-22T00:44:55.403Z,7.93
2023-08-22T00:47:00.981Z,6.97
2023-08-22T00:49:10.321Z,12.00
2023-08-22T00:51:17.243Z,5.82
2023-08-22T00:53:24.507Z,6.40
2023-08-22T00:55:33.431Z,6.88
2023-08-22T00:57:46.353Z,8.00
2023-08-22T00:59:52.874Z,7.05
2023-08-22T01:01:59.040Z,11.50
2023-08-22T01:04:05.005Z,7.85
2023-08-22T01:06:17.831Z,5.47
2023-08-22T01:08:29.725Z,6.63
2023-08-22T01:10:42.502Z,9.02
2023-08-22T01:12:56.504Z,10.90
2023-08-22T01:15:09.476Z,9.32
2023-08-22T01:17:18.138Z,8.05
2023-08-22T01:19:24.036Z,7.85
2023-08-22T01:21:30.697Z,9.63
2023-08-22T01:23:39.152Z,7.25
2023-08-22T01:25:45.848Z,6.78
2023-08-22T01:28:12.458Z,6.97
2023-08-22T01:30:29.272Z,5.88
2023-08-22T01:32:39.759Z,10.45
2023-08-22T01:34:46.694Z,12.07
2023-08-22T01:36:56.463Z,6.88
2023-08-22T01:39:11.285Z,10.98
2023-08-22T01:41:18.159Z,11.75
2023-08-22T01:43:23.671Z,10.77
2023-08-22T01:45:29.678Z,10.43
2023-08-22T01:47:41.061Z,6.78
2023-08-22T01:49:47.145Z,12.05
2023-08-22T01:51:53.498Z,9.80
2023-08-22T01:53:58.904Z,14.27
2023-08-22T01:56:07.639Z,8.77
2023-08-22T01:58:13.670Z,10.55
2023-08-22T02:00:21.447Z,9.75
2023-08-22T02:02:29.490Z,15.32
2023-08-22T02:04:35.802Z,16.00
2023-08-22T02:06:41.380Z,14.20
2023-08-22T02:08:55.080Z,13.23
2023-08-22T02:11:01.084Z,12.15
2023-08-22T02:13:10.166Z,12.95
2023-08-22T02:15:15.756Z,12.48
2023-08-22T02:17:22.063Z,9.98
2023-08-22T02:19:27.471Z,10.68
2023-08-22T02:21:33.325Z,10.30
2023-08-22T02:23:39.871Z,8.93
2023-08-22T02:25:45.264Z,10.65
2023-08-22T02:27:52.435Z,9.10
2023-08-22T02:32:08.149Z,9.35
2023-08-22T02:34:13.635Z,9.63
2023-08-22T02:36:19.070Z,8.38
2023-08-22T02:38:25.726Z,10.32
2023-08-22T02:40:34.495Z,9.55
2023-08-22T02:42:38.448Z,7.75
2023-08-22T02:44:43.947Z,11.63
2023-08-22T02:46:49.806Z,11.73
2023-08-22T02:49:02.614Z,8.18
2023-08-22T02:51:08.035Z,11.18
2023-08-22T02:53:16.606Z,9.10
2023-08-22T02:55:22.502Z,12.18
2023-08-22T02:57:28.330Z,8.77
2023-08-22T02:59:34.552Z,12.13
2023-08-22T03:01:41.281Z,8.00
2023-08-22T03:03:53.061Z,13.63
2023-08-22T03:06:01.902Z,12.07
2023-08-22T03:08:11.837Z,6.38
2023-08-22T03:10:17.265Z,6.90
2023-08-22T03:12:23.316Z,10.38
2023-08-22T03:14:29.596Z,8.18
2023-08-22T03:16:35.150Z,8.63
2023-08-22T03:18:47.161Z,10.48
2023-08-22T03:20:57.766Z,6.63
2023-08-22T03:23:06.179Z,8.10
2023-08-22T03:25:12.781Z,12.52
2023-08-22T03:27:19.964Z,11.07
2023-08-22T03:29:26.446Z,11.77
2023-08-22T03:31:32.703Z,10.55
2023-08-22T03:33:44.919Z,6.97
2023-08-22T03:35:51.113Z,7.00
2023-08-22T03:38:02.008Z,9.38
2023-08-22T03:40:08.527Z,8.02
2023-08-22T03:42:14.198Z,8.30
2023-08-22T03:44:21.028Z,8.00
2023-08-22T03:46:37.293Z,7.05
2023-08-22T03:48:48.444Z,10.15
2023-08-22T03:50:54.879Z,8.10
2023-08-22T03:53:04.632Z,12.88
2023-08-22T03:55:12.719Z,8.90
2023-08-22T03:57:18.200Z,8.27
2023-08-22T03:59:24.142Z,27.23
2023-08-22T04:01:30.887Z,6.18
2023-08-22T04:03:40.855Z,9.38
2023-08-22T04:05:47.257Z,10.15
2023-08-22T04:07:56.332Z,12.02
2023-08-22T04:10:04.857Z,11.07
2023-08-22T04:12:11.350Z,9.25
2023-08-22T04:14:17.291Z,7.38
2023-08-22T04:16:23.592Z,8.95
2023-08-22T04:18:29.374Z,9.85
2023-08-22T04:20:38.264Z,9.00
2023-08-22T04:22:46.524Z,9.18
2023-08-22T04:24:50.073Z,9.33
2023-08-22T04:26:59.693Z,8.25
2023-08-22T04:29:07.044Z,5.97
2023-08-22T04:31:13.565Z,6.78
2023-08-22T04:33:19.082Z,8.32
2023-08-22T04:35:25.091Z,7.30
2023-08-22T04:37:38.224Z,10.55
2023-08-22T04:39:44.245Z,10.65
2023-08-22T04:42:12.759Z,9.50
2023-08-22T04:44:30.712Z,156.65
2023-08-22T04:46:37.069Z,50.50
2023-08-22T04:48:43.811Z,372.75
2023-08-22T04:50:50.317Z,326.00
2023-08-22T04:52:58.359Z,396.52
2023-08-22T04:55:05.878Z,6.30
2023-08-22T04:57:14.222Z,9.60
2023-08-22T04:59:19.728Z,6.05
2023-08-22T05:01:25.281Z,6.88
2023-08-22T05:03:31.394Z,8.35
2023-08-22T05:05:37.402Z,6.82
2023-08-22T05:07:46.068Z,7.55
2023-08-22T05:09:52.466Z,7.70
2023-08-22T05:11:59.181Z,8.57
2023-08-22T05:14:07.887Z,7.77
2023-08-22T05:16:13.418Z,9.15
2023-08-22T05:18:18.999Z,8.93
2023-08-22T05:20:25.438Z,10.75
2023-08-22T05:22:31.533Z,15.52
2023-08-22T05:24:37.542Z,9.60
2023-08-22T05:26:43.564Z,8.90
2023-08-22T05:28:51.194Z,9.02
2023-08-22T05:33:10.821Z,8.60
2023-08-22T05:35:16.420Z,9.10
2023-08-22T05:37:22.409Z,10.60
2023-08-22T05:39:28.033Z,14.43
2023-08-22T05:41:34.699Z,12.30
2023-08-22T05:43:41.602Z,8.20
2023-08-22T05:45:47.717Z,10.35
2023-08-22T05:48:10.928Z,8.65
2023-08-22T05:50:17.496Z,12.65
2023-08-22T05:52:20.648Z,9.82
2023-08-22T05:54:26.149Z,10.73
2023-08-22T05:56:32.625Z,10.48
2023-08-22T05:58:46.045Z,10.93
2023-08-22T06:00:51.477Z,13.40
2023-08-22T06:03:00.624Z,11.05
2023-08-22T06:05:08.099Z,9.73
2023-08-22T06:07:14.697Z,12.55
2023-08-22T06:09:20.400Z,11.15
2023-08-22T06:11:26.531Z,16.65
2023-08-22T06:13:49.005Z,12.98
2023-08-22T06:15:54.497Z,10.68
2023-08-22T06:18:15.930Z,8.87
2023-08-22T06:20:23.056Z,13.63
2023-08-22T06:22:28.574Z,8.70
2023-08-22T06:24:39.201Z,12.95
2023-08-22T06:26:46.224Z,9.73
2023-08-22T06:31:06.586Z,11.30
2023-08-22T06:33:18.465Z,11.85
2023-08-22T06:35:26.408Z,11.00
2023-08-22T06:37:32.469Z,10.82
2023-08-22T06:39:39.912Z,13.98
2023-08-22T06:41:45.320Z,14.57
2023-08-22T06:43:52.402Z,12.07
2023-08-22T06:46:03.558Z,12.10
2023-08-22T06:48:09.991Z,10.90
2023-08-22T06:50:21.672Z,14.45
2023-08-22T06:52:27.123Z,13.48
2023-08-22T06:54:33.766Z,15.60
2023-08-22T06:56:39.169Z,11.77
2023-08-22T06:58:50.442Z,11.93
2023-08-22T07:00:55.939Z,14.32
2023-08-22T07:03:02.602Z,18.67
2023-08-22T07:05:08.678Z,13.88
2023-08-22T07:07:17.153Z,11.85
2023-08-22T07:09:23.685Z,12.40
2023-08-22T07:11:32.884Z,14.07
2023-08-22T07:13:39.828Z,12.07
2023-08-22T07:15:45.425Z,14.30
2023-08-22T07:17:58.801Z,11.13
2023-08-22T07:20:04.006Z,9.85
2023-08-22T07:22:09.421Z,15.23
2023-08-22T07:24:18.340Z,15.50
2023-08-22T07:26:23.934Z,14.45
2023-08-22T07:28:29.790Z,17.25
2023-08-22T07:30:37.335Z,12.57
2023-08-22T07:32:51.200Z,11.20
2023-08-22T07:34:57.681Z,13.77
2023-08-22T07:37:03.097Z,14.45
2023-08-22T07:39:15.049Z,14.93
2023-08-22T07:41:23.037Z,8.63
2023-08-22T07:43:28.768Z,13.80
2023-08-22T07:45:35.359Z,14.45
2023-08-22T07:47:51.140Z,13.55
2023-08-22T07:49:57.116Z,13.57
2023-08-22T07:51:59.911Z,16.63
2023-08-22T07:54:05.849Z,13.73
2023-08-22T07:56:11.211Z,8.38
2023-08-22T07:58:27.368Z,14.18
2023-08-22T08:00:32.887Z,12.63
2023-08-22T08:02:38.461Z,14.52
2023-08-22T08:04:44.393Z,13.32
2023-08-22T08:06:50.281Z,13.25
2023-08-22T08:09:00.115Z,11.93
2023-08-22T08:11:05.856Z,10.00
2023-08-22T08:13:11.826Z,11.93
2023-08-22T08:15:20.797Z,9.23
2023-08-22T08:17:27.201Z,13.63
2023-08-22T08:19:33.456Z,9.75
2023-08-22T08:21:46.984Z,9.77
2023-08-22T08:23:50.161Z,9.48
2023-08-22T08:25:55.645Z,14.02
2023-08-22T08:28:06.218Z,11.52
2023-08-22T08:30:13.256Z,13.05
2023-08-22T08:32:21.346Z,10.95
2023-08-22T08:34:27.418Z,11.98
2023-08-22T08:36:32.789Z,12.98
2023-08-22T08:38:43.150Z,9.57
2023-08-22T08:40:50.981Z,12.27
2023-08-22T08:42:56.868Z,10.38
2023-08-22T08:45:02.281Z,8.25
2023-08-22T08:47:10.025Z,8.45
2023-08-22T08:49:19.320Z,9.98
2023-08-22T08:51:25.592Z,8.93
2023-08-22T08:53:35.922Z,9.73
2023-08-22T08:55:44.679Z,8.05
2023-08-22T08:57:57.063Z,11.73
2023-08-22T09:00:05.865Z,9.05
2023-08-22T09:02:19.264Z,9.85
2023-08-22T09:04:27.820Z,10.15
2023-08-22T09:06:33.196Z,9.43
2023-08-22T09:08:38.630Z,9.88
2023-08-22T09:10:45.023Z,9.65
2023-08-22T09:12:50.469Z,9.88
2023-08-22T09:14:57.281Z,6.88
2023-08-22T09:17:05.196Z,8.02
2023-08-22T09:19:18.036Z,8.73
2023-08-22T09:21:26.706Z,9.10
2023-08-22T09:23:32.954Z,10.40
2023-08-22T09:25:43.753Z,8.20
2023-08-22T09:27:51.303Z,6.15
2023-08-22T09:30:01.407Z,7.07
2023-08-22T09:32:09.693Z,8.00
2023-08-22T09:34:16.033Z,8.02
2023-08-22T09:36:25.972Z,6.03
2023-08-22T09:38:28.796Z,7.65
2023-08-22T09:40:34.531Z,7.35
2023-08-22T09:42:43.698Z,8.77
2023-08-22T09:44:50.358Z,6.28
2023-08-22T09:46:57.608Z,9.63
2023-08-22T09:49:03.567Z,8.20
2023-08-22T09:51:12.111Z,8.23
2023-08-22T09:53:21.783Z,10.75
2023-08-22T09:55:28.678Z,8.18
2023-08-22T09:59:42.821Z,13.18
2023-08-22T10:01:49.058Z,11.60
2023-08-22T10:03:57.854Z,6.75
2023-08-22T10:06:11.455Z,10.60
2023-08-22T10:08:20.658Z,9.20
2023-08-22T10:10:27.357Z,7.57
2023-08-22T10:12:35.485Z,7.80
2023-08-22T10:16:50.319Z,8.27
2023-08-22T10:19:05.259Z,9.93
2023-08-22T10:21:14.550Z,8.27
2023-08-22T10:23:44.860Z,8.27
2023-08-22T10:25:49.042Z,5.80
2023-08-22T10:28:11.327Z,8.23
2023-08-22T10:30:24.900Z,8.02
2023-08-22T10:32:32.643Z,8.80
2023-08-22T10:35:23.717Z,7.00
2023-08-22T10:37:30.828Z,11.45
2023-08-22T10:39:43.855Z,9.60
2023-08-22T10:41:49.890Z,12.15
2023-08-22T10:44:00.167Z,8.93
2023-08-22T10:46:08.214Z,9.90
2023-08-22T10:48:15.898Z,9.52
2023-08-22T10:50:20.542Z,7.88
2023-08-22T10:52:41.795Z,6.97
2023-08-22T10:55:10.536Z,9.15
2023-08-22T10:57:23.426Z,6.45
2023-08-22T10:59:28.795Z,7.05
2023-08-22T11:01:35.038Z,7.65
2023-08-22T11:03:38.136Z,9.18
2023-08-22T11:05:44.666Z,8.75
2023-08-22T11:07:53.392Z,6.32
2023-08-22T11:10:00.188Z,4.43
2023-08-22T11:12:27.548Z,7.10
2023-08-22T11:14:51.293Z,7.70
2023-08-22T11:16:57.375Z,7.28
2023-08-22T11:19:07.122Z,7.95
2023-08-22T11:21:14.148Z,7.18
2023-08-22T11:23:17.012Z,8.27
2023-08-22T11:25:28.959Z,9.07
2023-08-22T11:27:48.363Z,7.60
2023-08-22T11:29:54.906Z,6.68
2023-08-22T11:34:07.131Z,4.90
2023-08-22T11:36:12.677Z,7.15
2023-08-22T11:38:18.086Z,4.10
2023-08-22T11:40:30.770Z,7.15
2023-08-22T11:42:40.256Z,5.80
2023-08-22T11:45:02.147Z,5.97
2023-08-22T11:47:14.687Z,5.32
2023-08-22T11:49:27.141Z,6.05
2023-08-22T11:51:33.014Z,4.97
2023-08-22T11:53:39.773Z,11.15
2023-08-22T11:55:49.504Z,3.80
2023-08-22T11:58:05.180Z,6.15
2023-08-22T12:00:14.408Z,4.10
2023-08-22T12:02:21.661Z,5.65
2023-08-22T12:04:27.077Z,7.15
2023-08-22T12:06:32.574Z,4.50
2023-08-22T12:08:40.354Z,6.10
2023-08-22T12:10:47.304Z,6.28
2023-08-22T12:12:53.812Z,4.38
2023-08-22T12:15:02.072Z,6.57
2023-08-22T12:17:08.303Z,4.63
2023-08-22T12:19:14.625Z,4.80
2023-08-22T12:21:19.996Z,6.93
2023-08-22T12:23:25.952Z,4.32
2023-08-22T12:25:31.594Z,4.80
2023-08-22T12:27:43.574Z,6.43
2023-08-22T12:29:49.816Z,4.07
2023-08-22T12:31:57.888Z,4.28
2023-08-22T12:34:03.270Z,8.15
2023-08-22T12:36:08.854Z,3.78
2023-08-22T12:38:14.872Z,9.30
2023-08-22T12:40:26.155Z,5.95
2023-08-22T12:42:31.511Z,3.90
2023-08-22T12:44:37.822Z,4.40
2023-08-22T12:46:43.226Z,4.93
2023-08-22T12:48:54.874Z,4.80
2023-08-22T12:51:00.616Z,3.28
2023-08-22T12:53:11.051Z,3.65
2023-08-22T12:55:18.692Z,5.05
2023-08-22T12:57:24.730Z,5.50
2023-08-22T12:59:31.120Z,5.30
2023-08-22T13:01:35.476Z,5.80
2023-08-22T13:03:46.660Z,6.03
2023-08-22T13:05:54.821Z,5.75
2023-08-22T13:08:05.162Z,7.70
2023-08-22T13:10:12.376Z,3.97
2023-08-22T13:14:23.717Z,6.82
2023-08-22T13:16:29.225Z,4.95
2023-08-22T13:18:41.073Z,3.67
2023-08-22T13:20:46.629Z,4.65
2023-08-22T13:22:54.587Z,5.93
2023-08-22T13:25:00.027Z,5.70
2023-08-22T13:27:05.513Z,4.47
2023-08-22T13:29:19.060Z,5.45
2023-08-22T13:31:24.520Z,6.75
2023-08-22T13:33:29.929Z,3.08
2023-08-22T13:35:35.774Z,3.58
2023-08-22T13:37:49.077Z,4.47
2023-08-22T13:39:57.252Z,3.22
2023-08-22T13:42:02.686Z,6.20
2023-08-22T13:44:08.369Z,4.90
2023-08-22T13:46:11.679Z,6.13
2023-08-22T13:48:21.321Z,2.55
2023-08-22T13:50:27.564Z,4.13
2023-08-22T13:52:32.956Z,3.92
2023-08-22T13:54:38.338Z,5.30
2023-08-22T13:56:46.794Z,4.07
2023-08-22T13:58:58.934Z,3.58
2023-08-22T14:01:05.538Z,5.82
2023-08-22T14:03:11.033Z,3.92
2023-08-22T14:05:16.531Z,5.10
2023-08-22T14:07:21.928Z,3.72
2023-08-22T14:09:32.598Z,4.50
2023-08-22T14:11:38.861Z,4.55
2023-08-22T14:13:47.759Z,7.78
2023-08-22T14:15:54.287Z,6.28
2023-08-22T14:20:19.355Z,5.07
2023-08-22T14:22:27.248Z,5.13
2023-08-22T14:24:32.886Z,4.85
2023-08-22T14:26:38.743Z,6.50
2023-08-22T14:28:47.409Z,3.25
2023-08-22T14:30:52.794Z,5.07
2023-08-22T14:32:58.447Z,3.42
2023-08-22T14:35:04.200Z,6.60
2023-08-22T14:37:22.229Z,3.33
2023-08-22T14:39:29.536Z,3.85
2023-08-22T14:43:45.474Z,4.82
2023-08-22T14:45:53.892Z,3.45
2023-08-22T14:48:08.032Z,3.00
2023-08-22T14:50:13.875Z,5.32
2023-08-22T14:52:19.263Z,4.97
2023-08-22T14:54:24.634Z,2.95
2023-08-22T14:56:30.235Z,6.45
2023-08-22T14:58:43.396Z,5.60
2023-08-22T15:00:52.568Z,11.02
2023-08-22T15:02:58.084Z,2.47
2023-08-22T15:05:03.534Z,5.50
2023-08-22T15:07:09.095Z,5.18
2023-08-22T15:09:14.590Z,6.03
2023-08-22T15:11:28.377Z,5.25
2023-08-22T15:13:34.687Z,6.38
2023-08-22T15:15:41.191Z,5.38
2023-08-22T15:17:51.975Z,7.60
2023-08-22T15:19:59.686Z,5.30
2023-08-22T15:22:05.431Z,5.70
2023-08-22T15:24:10.990Z,9.15
2023-08-22T15:26:16.489Z,7.40
2023-08-22T15:28:22.957Z,4.82
2023-08-22T15:30:33.921Z,5.35
2023-08-22T15:32:39.296Z,6.93
2023-08-22T15:34:47.614Z,6.82
2023-08-22T15:36:53.012Z,4.70
2023-08-22T15:39:08.058Z,6.03
2023-08-22T15:41:13.672Z,7.30
2023-08-22T15:43:17.986Z,4.68
2023-08-22T15:45:23.933Z,6.22
2023-08-22T15:47:34.342Z,10.50
2023-08-22T15:49:40.078Z,6.00
2023-08-22T15:51:48.786Z,6.15
2023-08-22T15:53:51.947Z,7.63
2023-08-22T15:56:00.789Z,6.90
2023-08-22T15:58:06.707Z,6.68
2023-08-22T16:00:18.255Z,6.82
2023-08-22T16:02:25.599Z,7.03
2023-08-22T16:04:31.166Z,5.30
2023-08-22T16:06:34.113Z,5.53
2023-08-22T16:08:46.414Z,6.55
2023-08-22T16:10:52.144Z,6.00
2023-08-22T16:12:57.552Z,7.18
2023-08-22T16:15:03.006Z,7.72
2023-08-22T16:17:08.978Z,5.38
2023-08-22T16:19:18.010Z,9.00
2023-08-22T16:21:23.710Z,7.85
2023-08-22T16:23:34.842Z,5.72
2023-08-22T16:25:48.250Z,8.77
2023-08-22T16:27:59.784Z,4.95
2023-08-22T16:30:05.284Z,7.07
2023-08-22T16:32:11.034Z,6.13
2023-08-22T16:34:17.224Z,5.55
2023-08-22T16:36:22.804Z,5.88
2023-08-22T16:38:29.210Z,6.57
2023-08-22T16:40:42.016Z,7.60
2023-08-22T16:42:50.478Z,6.55
2023-08-22T16:44:56.110Z,8.90
2023-08-22T16:47:01.992Z,8.57
2023-08-22T16:49:23.692Z,5.18
2023-08-22T16:51:30.320Z,6.10
2023-08-22T16:53:40.403Z,9.63
2023-08-22T16:55:50.460Z,4.03
2023-08-22T16:58:06.346Z,4.55
2023-08-22T17:00:20.258Z,6.72
2023-08-22T17:02:26.217Z,6.13
2023-08-22T17:04:31.641Z,7.18
2023-08-22T17:06:37.465Z,4.07
2023-08-22T17:08:46.843Z,8.85
2023-08-22T17:10:53.110Z,8.85
2023-08-22T17:13:01.723Z,5.10
2023-08-22T17:15:07.982Z,4.63
2023-08-22T17:17:13.709Z,7.38
2023-08-22T17:19:19.130Z,7.60
2023-08-22T17:21:26.875Z,5.82
2023-08-22T17:23:32.589Z,7.88
2023-08-22T17:25:37.996Z,6.22
2023-08-22T17:27:44.726Z,7.82
2023-08-22T17:29:52.932Z,5.30
2023-08-22T17:31:58.433Z,6.78
2023-08-22T17:34:04.368Z,9.55
2023-08-22T17:36:12.424Z,13.38
2023-08-22T17:38:18.634Z,3.97
2023-08-22T17:40:24.468Z,6.32
2023-08-22T17:42:31.936Z,4.82
2023-08-22T17:44:37.673Z,5.63
2023-08-22T17:46:45.989Z,7.28
2023-08-22T17:48:56.299Z,6.15
2023-08-22T17:51:02.781Z,5.20
2023-08-22T17:53:09.641Z,5.55
2023-08-22T17:55:15.369Z,6.85
2023-08-22T17:57:20.768Z,8.05
2023-08-22T17:59:31.525Z,5.60
2023-08-22T18:01:41.331Z,9.52
2023-08-22T18:03:50.984Z,5.50
2023-08-22T18:05:55.770Z,6.22
2023-08-22T18:08:01.556Z,12.23
2023-08-22T18:10:12.205Z,7.47
2023-08-22T18:12:18.747Z,6.47
2023-08-22T18:14:28.121Z,7.22
2023-08-22T18:16:36.126Z,6.28
2023-08-22T18:18:43.855Z,6.97
2023-08-22T18:25:10.823Z,5.82
2023-08-22T18:27:19.578Z,7.93
2023-08-22T18:29:23.746Z,5.43
2023-08-22T18:31:31.137Z,4.95
2023-08-22T18:33:37.295Z,7.28
2023-08-22T18:35:47.187Z,7.25
2023-08-22T18:37:53.993Z,7.35
2023-08-22T18:40:01.442Z,5.10
2023-08-22T18:42:11.085Z,5.50
2023-08-22T18:44:19.588Z,5.40
2023-08-22T18:46:27.093Z,8.13
2023-08-22T18:50:41.132Z,7.57
2023-08-22T18:52:48.875Z,4.95
2023-08-22T18:54:57.100Z,5.72
2023-08-22T18:57:05.057Z,7.57
2023-08-22T18:59:10.880Z,4.72
2023-08-22T19:01:22.443Z,9.00
2023-08-22T19:03:31.769Z,12.02
2023-08-22T19:05:37.153Z,6.03
2023-08-22T19:07:48.402Z,5.68
2023-08-22T19:09:56.605Z,6.63
2023-08-22T19:12:10.318Z,6.32
2023-08-22T19:14:18.617Z,8.35
2023-08-22T19:16:26.735Z,10.82
2023-08-22T19:18:36.480Z,6.95
2023-08-22T19:20:46.391Z,7.65
2023-08-22T19:22:53.959Z,5.05
2023-08-22T19:25:02.402Z,8.40
2023-08-22T19:27:08.078Z,6.80
2023-08-22T19:29:13.456Z,6.30
2023-08-22T19:31:25.103Z,4.82
2023-08-22T19:33:33.179Z,7.25
2023-08-22T19:35:41.148Z,5.47
2023-08-22T19:37:49.440Z,8.52
2023-08-22T19:39:57.101Z,6.65
2023-08-22T19:42:13.242Z,3.97
2023-08-22T19:44:19.082Z,7.80
2023-08-22T19:46:27.177Z,12.90
2023-08-22T19:48:40.132Z,8.95
2023-08-22T19:50:47.334Z,5.32
2023-08-22T19:52:51.679Z,13.10
2023-08-22T19:54:57.799Z,12.60
2023-08-22T19:57:08.207Z,7.38
2023-08-22T19:59:13.661Z,4.53
2023-08-22T20:01:19.426Z,6.50
2023-08-22T20:03:29.054Z,6.30
2023-08-22T20:05:33.152Z,6.63
2023-08-22T20:07:40.561Z,6.68
2023-08-22T20:11:58.275Z,11.85
2023-08-22T20:14:08.382Z,7.38
2023-08-22T20:16:14.602Z,10.30
2023-08-22T20:18:21.037Z,8.30
2023-08-22T20:20:27.084Z,11.48
2023-08-22T20:22:32.936Z,9.57
2023-08-22T20:24:38.313Z,8.52
2023-08-22T20:26:44.166Z,8.98
2023-08-22T20:28:52.445Z,9.82
2023-08-22T20:31:10.462Z,9.25
2023-08-22T20:33:17.538Z,9.02
2023-08-22T20:35:22.964Z,11.93
2023-08-22T20:37:28.492Z,8.52
2023-08-22T20:39:34.655Z,11.13
2023-08-22T20:41:40.278Z,7.90
2023-08-22T20:43:46.265Z,8.35
2023-08-22T20:45:51.680Z,6.22
2023-08-22T20:47:59.819Z,9.10
2023-08-22T20:50:05.644Z,7.93
2023-08-22T20:52:11.002Z,8.25
2023-08-22T20:54:17.162Z,15.73
2023-08-22T20:56:23.297Z,10.02
2023-08-22T20:58:28.707Z,18.55
2023-08-22T21:00:36.758Z,14.82
2023-08-22T21:02:40.739Z,9.95
2023-08-22T21:04:49.368Z,7.47
2023-08-22T21:06:55.613Z,11.05
2023-08-22T21:09:07.534Z,11.50
2023-08-22T21:11:13.699Z,8.55
2023-08-22T21:13:19.094Z,6.53
2023-08-22T21:15:25.155Z,6.32
2023-08-22T21:17:33.325Z,7.65
2023-08-22T21:19:38.731Z,7.18
2023-08-22T21:21:47.473Z,8.63
2023-08-22T21:23:52.915Z,9.38
2023-08-22T21:26:01.265Z,8.45
2023-08-22T21:28:07.409Z,7.47
2023-08-22T21:30:14.789Z,11.13
2023-08-22T21:32:27.639Z,16.83
2023-08-22T21:34:33.007Z,5.22
2023-08-22T21:36:38.836Z,7.40
2023-08-22T21:39:00.698Z,9.13
2023-08-22T21:41:06.721Z,9.32
2023-08-22T21:43:12.127Z,11.43
2023-08-22T21:45:17.826Z,7.78
2023-08-22T21:47:23.886Z,8.65
2023-08-22T21:49:29.437Z,11.52
2023-08-22T21:51:35.513Z,13.48
2023-08-22T21:53:41.239Z,8.85
2023-08-22T21:55:50.130Z,8.05
2023-08-22T21:57:57.194Z,7.15
2023-08-22T22:00:03.210Z,8.15
2023-08-22T22:02:13.429Z,12.35
2023-08-22T22:04:16.350Z,9.43
2023-08-22T22:06:22.141Z,8.45
2023-08-22T22:08:28.125Z,13.35
2023-08-22T22:10:38.130Z,10.38
2023-08-22T22:12:46.469Z,11.07
2023-08-22T22:14:52.409Z,11.85
2023-08-22T22:16:57.794Z,11.05
2023-08-22T22:19:15.343Z,8.32
2023-08-22T22:23:26.654Z,10.32
2023-08-22T22:25:32.405Z,13.00
2023-08-22T22:27:37.821Z,9.85
2023-08-22T22:29:44.185Z,12.63
2023-08-22T22:31:49.940Z,9.20
2023-08-22T22:33:55.348Z,12.07
2023-08-22T22:36:01.651Z,12.18
2023-08-22T22:38:09.677Z,10.32
2023-08-22T22:40:16.023Z,11.70
2023-08-22T22:42:22.719Z,10.85
2023-08-22T22:44:28.246Z,13.82
2023-08-22T22:46:34.161Z,7.63
2023-08-22T22:48:43.479Z,9.73
2023-08-22T22:50:49.159Z,9.95
2023-08-22T22:52:54.575Z,10.32
2023-08-22T22:55:00.449Z,10.70
2023-08-22T22:57:06.441Z,8.98
2023-08-22T22:59:15.029Z,11.30
2023-08-22T23:01:21.538Z,12.13
2023-08-22T23:03:29.726Z,12.85
2023-08-22T23:05:36.543Z,13.25
2023-08-22T23:07:43.191Z,11.38
2023-08-22T23:09:49.017Z,8.13
2023-08-22T23:12:04.734Z,9.80
2023-08-22T23:14:18.281Z,12.73
2023-08-22T23:16:24.836Z,10.88
2023-08-22T23:18:32.854Z,15.73
2023-08-22T23:20:38.719Z,13.30
2023-08-22T23:22:51.282Z,14.02
2023-08-22T23:24:57.143Z,12.18
2023-08-22T23:27:02.015Z,11.00
2023-08-22T23:29:08.658Z,13.73
2023-08-22T23:31:14.528Z,15.90
2023-08-22T23:33:19.903Z,14.15
2023-08-22T23:35:28.121Z,12.00
2023-08-22T23:37:38.690Z,11.23
2023-08-22T23:39:41.494Z,13.98
2023-08-22T23:41:47.337Z,7.47
2023-08-22T23:43:53.156Z,19.95
2023-08-22T23:45:59.050Z,13.55
2023-08-22T23:48:06.688Z,10.30
2023-08-22T23:50:12.926Z,15.15
2023-08-22T23:52:21.769Z,13.65
2023-08-22T23:54:27.135Z,10.23
2023-08-22T23:56:33.069Z,11.10
2023-08-22T23:58:45.601Z,40.15
